createdAt,value
2019-04-25T00:01:21.334Z,102228.65
2019-04-25T00:04:27.724Z,102213.72
2019-04-25T00:07:34.516Z,102219.56
2019-04-25T00:10:43.075Z,102220.92
2019-04-25T00:13:51.596Z,102213.28
2019-04-25T00:16:58.116Z,102221.95
2019-04-25T00:20:06.619Z,102220.91
2019-04-25T00:23:15.853Z,102215.13
2019-04-25T00:26:28.738Z,102216.15
2019-04-25T00:29:35.124Z,102217.85
2019-04-25T00:32:42.958Z,102207.52
2019-04-25T00:35:51.347Z,102224.03
2019-04-25T00:38:58.338Z,102222.00
2019-04-25T00:42:04.906Z,102215.84
2019-04-25T00:45:11.923Z,102216.87
2019-04-25T00:48:19.442Z,102214.15
2019-04-25T00:51:25.874Z,102210.02
2019-04-25T00:54:32.235Z,102211.69
2019-04-25T00:57:39.890Z,102203.10
2019-04-25T01:01:18.498Z,102205.68
2019-04-25T01:04:25.529Z,102210.08
2019-04-25T01:07:32.391Z,102208.11
2019-04-25T01:10:41.609Z,102210.30
2019-04-25T01:13:49.266Z,102210.10
2019-04-25T01:16:56.127Z,102205.68
2019-04-25T01:20:04.096Z,102195.45
2019-04-25T01:23:10.767Z,102193.14
2019-04-25T01:26:17.156Z,102196.84
2019-04-25T01:29:23.758Z,102197.05
2019-04-25T01:32:35.325Z,102192.62
2019-04-25T01:36:13.382Z,102177.83
2019-04-25T01:39:39.743Z,102186.31
2019-04-25T01:43:07.912Z,102176.84
2019-04-25T01:46:14.846Z,102182.95
2019-04-25T01:49:21.736Z,102184.66
2019-04-25T01:52:29.145Z,102179.84
2019-04-25T01:55:35.808Z,102191.11
2019-04-25T01:58:43.816Z,102178.86
2019-04-25T02:01:51.047Z,102180.41
2019-04-25T02:04:59.168Z,102175.08
2019-04-25T02:08:06.974Z,102172.02
2019-04-25T02:11:21.324Z,102167.76
2019-04-25T02:14:29.078Z,102163.58
2019-04-25T02:17:35.460Z,102163.58
2019-04-25T02:20:43.498Z,102164.09
2019-04-25T02:23:51.622Z,102158.10
2019-04-25T02:26:58.812Z,102160.30
2019-04-25T02:30:06.970Z,102157.41
2019-04-25T02:33:14.383Z,102156.39
2019-04-25T02:36:20.702Z,102144.83
2019-04-25T02:39:28.078Z,102151.62
2019-04-25T02:42:34.481Z,102146.17
2019-04-25T02:46:01.772Z,102147.91
2019-04-25T02:49:39.911Z,102141.23
2019-04-25T02:52:51.400Z,102142.11
2019-04-25T02:55:57.839Z,102143.81
2019-04-25T02:59:06.993Z,102148.22
2019-04-25T03:02:12.453Z,102147.53
2019-04-25T03:05:19.144Z,102143.14
2019-04-25T03:08:25.604Z,102139.05
2019-04-25T03:11:34.703Z,102131.26
2019-04-25T03:14:41.074Z,102139.03
2019-04-25T03:17:47.541Z,102132.24
2019-04-25T03:21:05.184Z,102137.45
2019-04-25T03:24:13.097Z,102135.57
2019-04-25T03:27:18.332Z,102133.45
2019-04-25T03:30:25.694Z,102129.88
2019-04-25T03:33:32.032Z,102130.55
2019-04-25T03:36:38.412Z,102122.70
2019-04-25T03:39:44.774Z,102122.70
2019-04-25T03:42:51.278Z,102120.38
2019-04-25T03:45:57.733Z,102124.58
2019-04-25T03:49:05.307Z,102120.51
2019-04-25T03:52:14.169Z,102127.47
2019-04-25T03:55:20.952Z,102126.09
2019-04-25T03:58:27.309Z,102121.22
2019-04-25T04:01:34.284Z,102126.45
2019-04-25T04:04:40.756Z,102131.55
2019-04-25T04:07:47.124Z,102123.72
2019-04-25T04:10:54.369Z,102122.38
2019-04-25T04:14:03.917Z,102119.70
2019-04-25T04:17:36.005Z,102114.95
2019-04-25T04:20:53.481Z,102124.09
2019-04-25T04:24:09.668Z,102135.97
2019-04-25T04:27:18.409Z,102134.80
2019-04-25T04:30:24.778Z,102134.95
2019-04-25T04:33:34.353Z,102138.34
2019-04-25T04:36:39.886Z,102136.84
2019-04-25T04:39:46.277Z,102136.70
2019-04-25T04:42:53.332Z,102146.54
2019-04-25T04:45:59.969Z,102151.64
2019-04-25T04:49:08.785Z,102147.74
2019-04-25T04:52:17.032Z,102142.13
2019-04-25T04:55:23.687Z,102138.06
2019-04-25T04:58:30.156Z,102150.47
2019-04-25T05:01:38.962Z,102147.77
2019-04-25T05:05:08.519Z,102154.19
2019-04-25T05:08:19.986Z,102147.88
2019-04-25T05:11:26.407Z,102150.23
2019-04-25T05:14:39.157Z,102145.12
2019-04-25T05:17:48.246Z,102145.09
2019-04-25T05:21:13.257Z,102145.23
2019-04-25T05:24:24.999Z,102139.92
2019-04-25T05:27:57.676Z,102136.82
2019-04-25T05:31:16.804Z,102141.89
2019-04-25T05:34:41.691Z,102141.66
2019-04-25T05:37:59.595Z,102150.61
2019-04-25T05:41:15.804Z,102150.53
2019-04-25T05:44:27.350Z,102141.30
2019-04-25T05:47:34.057Z,102149.73
2019-04-25T05:50:40.373Z,102147.97
2019-04-25T05:53:47.642Z,102147.26
2019-04-25T05:56:54.031Z,102147.48
2019-04-25T06:00:00.470Z,102152.92
2019-04-25T06:03:07.250Z,102146.80
2019-04-25T06:06:13.733Z,102153.70
2019-04-25T06:09:45.522Z,102148.45
2019-04-25T06:13:13.976Z,102152.70
2019-04-25T06:16:29.564Z,102149.95
2019-04-25T06:19:43.557Z,102139.25
2019-04-25T06:22:56.748Z,102147.98
2019-04-25T06:26:17.144Z,102140.62
2019-04-25T06:29:11.356Z,102148.72
2019-04-25T06:32:17.683Z,102146.80
2019-04-25T06:35:25.142Z,102141.16
2019-04-25T06:38:33.462Z,102133.06
2019-04-25T06:41:40.094Z,102138.18
2019-04-25T06:45:05.431Z,102136.89
2019-04-25T06:48:35.207Z,102135.54
2019-04-25T06:51:54.785Z,102137.08
2019-04-25T06:55:01.156Z,102132.14
2019-04-25T06:58:11.690Z,102124.85
2019-04-25T07:01:15.697Z,102120.99
2019-04-25T07:04:22.776Z,102126.10
2019-04-25T07:07:31.080Z,102120.92
2019-04-25T07:10:37.622Z,102118.05
2019-04-25T07:13:44.228Z,102122.31
2019-04-25T07:16:52.849Z,102128.94
2019-04-25T07:20:00.773Z,102128.30
2019-04-25T07:23:07.161Z,102134.66
2019-04-25T07:26:21.375Z,102128.03
2019-04-25T07:29:53.941Z,102112.88
2019-04-25T07:33:27.284Z,102117.14
2019-04-25T07:36:34.785Z,102120.30
2019-04-25T07:39:41.785Z,102122.98
2019-04-25T07:42:48.073Z,102124.82
2019-04-25T07:45:54.519Z,102112.69
2019-04-25T07:49:00.888Z,102111.44
2019-04-25T07:52:07.321Z,102112.37
2019-04-25T07:55:13.863Z,102107.51
2019-04-25T07:58:20.432Z,102122.06
2019-04-25T08:01:27.998Z,102112.75
2019-04-25T08:04:36.170Z,102114.70
2019-04-25T08:07:43.761Z,102112.87
2019-04-25T08:10:59.134Z,102121.06
2019-04-25T08:14:11.561Z,102114.07
2019-04-25T08:17:39.615Z,102113.32
2019-04-25T08:20:47.152Z,102115.38
2019-04-25T08:23:53.975Z,102122.92
2019-04-25T08:27:00.702Z,102123.44
2019-04-25T08:30:08.049Z,102114.23
2019-04-25T08:33:14.498Z,102113.94
2019-04-25T08:36:21.112Z,102111.92
2019-04-25T08:39:27.626Z,102114.38
2019-04-25T08:42:35.825Z,102117.77
2019-04-25T08:45:44.131Z,102124.00
2019-04-25T08:49:21.811Z,102124.61
2019-04-25T08:52:28.274Z,102126.83
2019-04-25T08:55:54.046Z,102124.41
2019-04-25T08:59:34.039Z,102115.80
2019-04-25T09:02:58.884Z,102115.80
2019-04-25T09:06:05.917Z,102118.53
2019-04-25T09:09:13.687Z,102115.95
2019-04-25T09:12:20.240Z,102122.72
2019-04-25T09:15:27.026Z,102117.34
2019-04-25T09:18:36.051Z,102117.09
2019-04-25T09:21:48.033Z,102118.98
2019-04-25T09:24:51.157Z,102118.96
2019-04-25T09:27:57.703Z,102117.47
2019-04-25T09:31:04.291Z,102115.00
2019-04-25T09:34:10.868Z,102113.55
2019-04-25T09:37:17.249Z,102121.74
2019-04-25T09:40:24.098Z,102116.30
2019-04-25T09:43:30.748Z,102115.08
2019-04-25T09:46:37.799Z,102113.42
2019-04-25T09:49:46.302Z,102102.09
2019-04-25T09:52:53.927Z,102113.84
2019-04-25T09:56:14.068Z,102111.64
2019-04-25T09:59:27.962Z,102113.97
2019-04-25T10:02:30.969Z,102108.34
2019-04-25T10:05:38.428Z,102108.34
2019-04-25T10:08:45.414Z,102112.16
2019-04-25T10:11:54.504Z,102111.09
2019-04-25T10:15:31.307Z,102100.22
2019-04-25T10:18:39.205Z,102111.45
2019-04-25T10:21:45.722Z,102105.45
2019-04-25T10:25:00.435Z,102093.66
2019-04-25T10:28:00.382Z,102094.79
2019-04-25T10:31:07.192Z,102089.15
2019-04-25T10:34:14.132Z,102080.66
2019-04-25T10:37:20.889Z,102090.11
2019-04-25T10:40:27.952Z,102093.44
2019-04-25T10:43:34.613Z,102095.71
2019-04-25T10:46:42.168Z,102102.28
2019-04-25T10:49:49.498Z,102090.69
2019-04-25T10:52:55.916Z,102109.64
2019-04-25T10:56:05.509Z,102115.30
2019-04-25T10:59:10.671Z,102122.83
2019-04-25T11:02:17.315Z,102123.28
2019-04-25T11:05:24.014Z,102131.75
2019-04-25T11:08:30.705Z,102116.98
2019-04-25T11:11:37.304Z,102119.99
2019-04-25T11:14:44.324Z,102130.43
2019-04-25T11:17:51.148Z,102121.82
2019-04-25T11:20:59.231Z,102123.14
2019-04-25T11:24:05.871Z,102114.21
2019-04-25T11:27:13.517Z,102121.25
2019-04-25T11:30:22.747Z,102125.26
2019-04-25T11:33:29.294Z,102125.06
2019-04-25T11:36:35.841Z,102137.42
2019-04-25T11:39:49.285Z,102137.42
2019-04-25T11:42:55.922Z,102133.59
2019-04-25T11:46:04.581Z,102143.62
2019-04-25T11:49:10.705Z,102128.09
2019-04-25T11:52:27.324Z,102126.88
2019-04-25T11:55:25.968Z,102119.13
2019-04-25T11:58:32.456Z,102117.55
2019-04-25T12:01:39.661Z,102119.90
2019-04-25T12:04:47.692Z,102122.77
2019-04-25T12:07:54.182Z,102114.67
2019-04-25T12:11:00.692Z,102123.16
2019-04-25T12:14:07.370Z,102115.13
2019-04-25T12:17:13.745Z,102113.33
2019-04-25T12:20:20.185Z,102113.33
2019-04-25T12:23:27.034Z,102107.52
2019-04-25T12:26:34.449Z,102104.02
2019-04-25T12:29:40.815Z,102100.85
2019-04-25T12:32:47.927Z,102111.10
2019-04-25T12:35:55.376Z,102097.48
2019-04-25T12:39:03.376Z,102107.48
2019-04-25T12:42:11.678Z,102101.58
2019-04-25T12:45:25.268Z,102101.58
2019-04-25T12:48:31.891Z,102096.92
2019-04-25T12:51:38.363Z,102097.31
2019-04-25T12:54:44.687Z,102093.73
2019-04-25T12:57:51.515Z,102095.72
2019-04-25T13:01:00.095Z,102082.23
2019-04-25T13:04:07.072Z,102083.95
2019-04-25T13:07:13.767Z,102100.95
2019-04-25T13:10:21.210Z,102097.78
2019-04-25T13:13:27.741Z,102098.72
2019-04-25T13:16:34.306Z,102096.92
2019-04-25T13:19:41.107Z,102103.91
2019-04-25T13:22:47.494Z,102088.70
2019-04-25T13:25:55.836Z,102086.91
2019-04-25T13:29:23.049Z,102082.36
2019-04-25T13:33:00.377Z,102093.02
2019-04-25T13:36:12.257Z,102088.93
2019-04-25T13:39:20.003Z,102085.23
2019-04-25T13:42:26.378Z,102078.45
2019-04-25T13:45:32.770Z,102084.47
2019-04-25T13:48:40.242Z,102090.13
2019-04-25T13:51:46.766Z,102079.61
2019-04-25T13:54:54.236Z,102075.53
2019-04-25T13:58:00.676Z,102077.94
2019-04-25T14:01:13.103Z,102076.77
2019-04-25T14:04:18.791Z,102086.50
2019-04-25T14:07:25.544Z,102096.87
2019-04-25T14:10:32.783Z,102093.05
2019-04-25T14:13:43.588Z,102099.80
2019-04-25T14:17:07.022Z,102095.01
2019-04-25T14:20:18.998Z,102086.86
2019-04-25T14:23:25.768Z,102087.48
2019-04-25T14:26:33.171Z,102098.28
2019-04-25T14:29:39.531Z,102094.92
2019-04-25T14:32:45.964Z,102096.02
2019-04-25T14:35:53.477Z,102094.72
2019-04-25T14:39:01.312Z,102089.85
2019-04-25T14:42:09.531Z,102095.75
2019-04-25T14:45:17.884Z,102086.23
2019-04-25T14:48:24.794Z,102088.37
2019-04-25T14:51:31.102Z,102097.17
2019-04-25T14:54:44.602Z,102093.00
2019-04-25T14:57:51.162Z,102093.00
2019-04-25T15:00:57.719Z,102092.08
2019-04-25T15:04:04.563Z,102091.01
2019-04-25T15:07:11.490Z,102093.20
2019-04-25T15:10:18.631Z,102094.80
2019-04-25T15:13:25.780Z,102097.59
2019-04-25T15:16:33.425Z,102090.53
2019-04-25T15:19:40.042Z,102088.74
2019-04-25T15:22:46.375Z,102091.70
2019-04-25T15:25:52.788Z,102086.50
2019-04-25T15:28:59.690Z,102084.95
2019-04-25T15:32:07.765Z,102082.44
2019-04-25T15:35:15.962Z,102080.78
2019-04-25T15:38:29.039Z,102078.84
2019-04-25T15:41:54.672Z,102085.35
2019-04-25T15:45:19.903Z,102074.55
2019-04-25T15:48:26.455Z,102074.11
2019-04-25T15:51:33.093Z,102077.63
2019-04-25T15:54:39.573Z,102086.44
2019-04-25T15:57:45.912Z,102082.09
2019-04-25T16:00:52.380Z,102080.94
2019-04-25T16:03:58.817Z,102079.34
2019-04-25T16:07:05.522Z,102074.84
2019-04-25T16:10:12.295Z,102071.27
2019-04-25T16:13:19.463Z,102079.01
2019-04-25T16:16:26.799Z,102073.09
2019-04-25T16:19:33.268Z,102074.90
2019-04-25T16:22:39.747Z,102090.65
2019-04-25T16:25:46.227Z,102095.69
2019-04-25T16:28:52.742Z,102097.06
2019-04-25T16:32:00.561Z,102084.09
2019-04-25T16:35:07.257Z,102082.04
2019-04-25T16:38:13.970Z,102080.73
2019-04-25T16:41:21.068Z,102069.19
2019-04-25T16:44:28.678Z,102075.94
2019-04-25T16:47:35.950Z,102076.67
2019-04-25T16:50:42.343Z,102075.94
2019-04-25T16:53:48.728Z,102069.09
2019-04-25T16:56:55.110Z,102070.05
2019-04-25T17:00:01.665Z,102070.67
2019-04-25T17:03:09.780Z,102068.45
2019-04-25T17:06:16.195Z,102072.63
2019-04-25T17:09:22.513Z,102077.81
2019-04-25T17:12:29.675Z,102050.39
2019-04-25T17:16:02.307Z,102068.75
2019-04-25T17:19:12.223Z,102064.34
2019-04-25T17:22:18.863Z,102067.70
2019-04-25T17:25:25.413Z,102064.01
2019-04-25T17:28:33.438Z,102064.18
2019-04-25T17:31:58.903Z,102065.71
2019-04-25T17:35:18.315Z,102073.61
2019-04-25T17:38:33.585Z,102067.54
2019-04-25T17:41:41.251Z,102082.33
2019-04-25T17:44:47.955Z,102084.97
2019-04-25T17:47:55.070Z,102079.47
2019-04-25T17:51:01.798Z,102077.25
2019-04-25T17:54:09.237Z,102079.25
2019-04-25T17:57:15.680Z,102069.89
2019-04-25T18:00:39.702Z,102072.00
2019-04-25T18:03:47.118Z,102070.22
2019-04-25T18:06:54.412Z,102072.10
2019-04-25T18:10:00.824Z,102076.95
2019-04-25T18:13:09.573Z,102076.33
2019-04-25T18:16:31.213Z,102063.95
2019-04-25T18:19:55.306Z,102066.75
2019-04-25T18:23:09.766Z,102069.33
2019-04-25T18:26:28.215Z,102065.03
2019-04-25T18:29:35.076Z,102079.91
2019-04-25T18:32:50.125Z,102079.33
2019-04-25T18:36:03.909Z,102077.33
2019-04-25T18:39:21.222Z,102082.56
2019-04-25T18:42:52.830Z,102075.96
2019-04-25T18:46:04.088Z,102082.17
2019-04-25T18:49:10.715Z,102084.54
2019-04-25T18:52:42.920Z,102088.59
2019-04-25T18:56:11.439Z,102087.70
2019-04-25T18:59:38.687Z,102085.67
2019-04-25T19:03:07.153Z,102085.67
2019-04-25T19:06:15.763Z,102090.05
2019-04-25T19:09:22.302Z,102095.82
2019-04-25T19:12:28.699Z,102096.37
2019-04-25T19:15:35.109Z,102093.64
2019-04-25T19:18:44.418Z,102104.51
2019-04-25T19:21:50.057Z,102094.08
2019-04-25T19:24:56.853Z,102091.34
2019-04-25T19:28:03.278Z,102094.80
2019-04-25T19:31:10.983Z,102097.75
2019-04-25T19:34:17.514Z,102104.59
2019-04-25T19:37:25.425Z,102093.78
2019-04-25T19:40:49.799Z,102102.75
2019-04-25T19:44:05.527Z,102103.09
2019-04-25T19:47:11.937Z,102106.30
2019-04-25T19:50:18.343Z,102107.45
2019-04-25T19:53:24.750Z,102103.48
2019-04-25T19:56:32.970Z,102104.64
2019-04-25T19:59:39.595Z,102104.66
2019-04-25T20:02:54.331Z,102094.37
2019-04-25T20:06:07.069Z,102096.64
2019-04-25T20:09:31.875Z,102096.72
2019-04-25T20:12:45.302Z,102098.09
2019-04-25T20:15:52.124Z,102101.85
2019-04-25T20:18:58.502Z,102104.80
2019-04-25T20:22:05.033Z,102094.03
2019-04-25T20:25:11.511Z,102090.91
2019-04-25T20:28:17.873Z,102090.66
2019-04-25T20:31:24.252Z,102099.31
2019-04-25T20:34:30.716Z,102091.55
2019-04-25T20:37:38.120Z,102088.30
2019-04-25T20:40:45.350Z,102088.38
2019-04-25T20:43:52.950Z,102097.56
2019-04-25T20:46:59.370Z,102090.59
2019-04-25T20:50:07.114Z,102094.65
2019-04-25T20:53:13.461Z,102084.57
2019-04-25T20:56:20.837Z,102083.89
2019-04-25T20:59:27.511Z,102080.86
2019-04-25T21:02:33.934Z,102075.05
2019-04-25T21:05:41.011Z,102075.97
2019-04-25T21:08:47.403Z,102077.34
2019-04-25T21:11:53.893Z,102075.61
2019-04-25T21:15:19.318Z,102075.48
2019-04-25T21:18:35.829Z,102078.40
2019-04-25T21:21:42.384Z,102083.28
2019-04-25T21:24:49.491Z,102085.64
2019-04-25T21:27:56.944Z,102077.13
2019-04-25T21:31:04.227Z,102082.99
2019-04-25T21:34:10.816Z,102082.13
2019-04-25T21:37:17.676Z,102056.86
2019-04-25T21:40:43.822Z,102076.51
2019-04-25T21:43:54.392Z,102077.73
2019-04-25T21:47:01.029Z,102078.68
2019-04-25T21:50:08.062Z,102080.84
2019-04-25T21:53:14.705Z,102078.03
2019-04-25T21:56:21.268Z,102072.83
2019-04-25T21:59:27.669Z,102076.20
2019-04-25T22:02:34.224Z,102081.02
2019-04-25T22:05:41.030Z,102077.92
2019-04-25T22:08:47.387Z,102079.30
2019-04-25T22:11:54.761Z,102077.27
2019-04-25T22:15:02.056Z,102069.10
2019-04-25T22:18:08.450Z,102072.45
2019-04-25T22:21:14.806Z,102059.83
2019-04-25T22:24:22.138Z,102069.08
2019-04-25T22:27:33.472Z,102065.78
2019-04-25T22:30:40.974Z,102064.41
2019-04-25T22:34:03.785Z,102061.77
2019-04-25T22:37:10.807Z,102066.80
2019-04-25T22:40:17.703Z,102063.41
2019-04-25T22:43:25.333Z,102068.22
2019-04-25T22:46:32.909Z,102065.44
2019-04-25T22:49:39.681Z,102063.72
2019-04-25T22:52:46.312Z,102052.08
2019-04-25T22:55:52.679Z,102045.05
2019-04-25T22:58:59.060Z,102045.05
2019-04-25T23:02:13.931Z,102045.62
2019-04-25T23:05:27.539Z,102033.69
2019-04-25T23:08:34.068Z,102028.59
2019-04-25T23:11:40.481Z,102036.07
2019-04-25T23:14:47.161Z,102022.41
2019-04-25T23:17:53.773Z,102025.78
2019-04-25T23:21:00.185Z,102032.23
2019-04-25T23:24:07.863Z,102032.27
2019-04-25T23:27:30.635Z,102035.22
2019-04-25T23:30:50.170Z,102034.68
2019-04-25T23:33:56.475Z,102043.97
2019-04-25T23:37:03.082Z,102048.43
2019-04-25T23:40:11.578Z,102050.22
2019-04-25T23:43:18.042Z,102048.41
2019-04-25T23:46:24.896Z,102045.68
2019-04-25T23:49:31.200Z,102054.58
2019-04-25T23:52:37.864Z,102047.41
2019-04-25T23:55:44.328Z,102059.67
2019-04-25T23:58:51.024Z,102048.91
